Time;durP1;ratioP1;P1;durP2;ratioP2;P2;SDS_P1;SDS_P2;PMS_P1;PMS_P2;Temp;Humidity;BMP_temperature;BMP_pressure;BME280_temperature;BME280_humidity;BME280_pressure;Samples;Min_cycle;Max_cycle;Signal;HPM_P1;HPM_P2
2022/01/10 00:01:07;;;;;;;;;47.25;40.25;;;;;9.24;68.59;100770.00;5056528;28;48272;-87
2022/01/10 00:03:33;;;;;;;;;49.00;40.00;;;;;9.09;68.82;100754.63;5056260;28;46941;-87
2022/01/10 00:05:58;;;;;;;;;46.50;38.00;;;;;8.80;68.86;100703.44;5057401;28;45267;-87
2022/01/10 00:08:24;;;;;;;;;44.00;38.00;;;;;9.19;69.00;100779.06;5056785;28;45462;-87
2022/01/10 00:10:51;;;;;;;;;46.25;40.00;;;;;8.90;68.91;100724.31;5057717;28;46108;-87
2022/01/10 00:13:17;;;;;;;;;43.00;36.75;;;;;8.93;68.86;100738.38;5060535;28;45532;-87
2022/01/10 00:15:43;;;;;;;;;48.25;40.75;;;;;8.84;68.88;100749.34;5077637;27;45557;-88
2022/01/10 00:18:08;;;;;;;;;46.00;36.75;;;;;8.83;69.26;100752.94;5069833;27;45476;-88
2022/01/10 00:20:34;;;;;;;;;37.50;34.00;;;;;8.76;68.89;100746.97;5057375;28;45485;-87
2022/01/10 00:22:59;;;;;;;;;46.75;38.00;;;;;8.91;69.06;100769.47;5057559;28;45478;-87
2022/01/10 00:25:25;;;;;;;;;40.25;34.00;;;;;9.22;69.22;100818.84;5056314;28;45259;-88
2022/01/10 00:27:53;;;;;;;;;44.25;36.50;;;;;8.49;69.49;100693.03;5056621;28;45625;-87
2022/01/10 00:30:21;;;;;;;;;54.00;40.50;;;;;8.26;69.28;100659.28;5057128;28;46178;-88
2022/01/10 00:32:46;;;;;;;;;41.00;35.00;;;;;8.84;69.62;100747.53;5071050;28;45400;-87
2022/01/10 00:35:12;;;;;;;;;47.25;39.00;;;;;8.67;69.57;100726.03;5076467;28;45406;-87
2022/01/10 00:37:39;;;;;;;;;49.75;38.75;;;;;8.91;69.66;100768.59;5078155;27;45362;-88
2022/01/10 00:40:05;;;;;;;;;47.75;39.25;;;;;8.99;69.55;100779.81;5077395;27;46418;-88
2022/01/10 00:42:32;;;;;;;;;42.75;37.00;;;;;8.74;69.76;100735.53;5074776;28;45403;-88
2022/01/10 00:45:01;;;;;;;;;35.75;32.50;;;;;8.88;69.59;100762.47;5076164;28;45302;-87
2022/01/10 00:47:26;;;;;;;;;40.00;36.00;;;;;9.07;69.74;100794.56;5071281;28;45354;-87
2022/01/10 00:49:52;;;;;;;;;47.75;40.00;;;;;8.94;69.66;100776.44;5055626;28;48154;-87
2022/01/10 00:52:17;;;;;;;;;47.25;39.00;;;;;8.83;69.43;100758.25;5056229;28;45287;-88
2022/01/10 00:54:43;;;;;;;;;48.25;38.50;;;;;9.08;69.91;100804.28;5056539;28;45422;-88
2022/01/10 00:57:08;;;;;;;;;51.00;39.50;;;;;9.32;69.71;100837.97;5056905;28;45387;-88
2022/01/10 00:59:34;;;;;;;;;53.00;44.25;;;;;9.24;69.22;100830.28;5058115;28;45475;-87
2022/01/10 01:01:59;;;;;;;;;49.75;41.25;;;;;9.32;69.31;100841.53;5077217;27;45448;-87
2022/01/10 01:04:25;;;;;;;;;49.50;42.00;;;;;8.95;69.80;100778.19;5077322;27;45431;-87
2022/01/10 01:06:50;;;;;;;;;53.00;43.00;;;;;9.28;69.38;100838.09;5077397;27;45335;-88
2022/01/10 01:09:20;;;;;;;;;47.50;39.50;;;;;9.33;69.57;100853.91;5076423;27;45442;-88
2022/01/10 01:12:13;;;;;;;;;48.00;40.75;;;;;9.34;69.44;100860.97;5058342;27;45603;-88
2022/01/10 01:17:14;;;;;;;;;54.50;44.50;;;;;9.03;69.55;100824.81;5063664;28;45456;-88
2022/01/10 01:25:03;;;;;;;;;48.25;40.00;;;;;9.15;69.52;100857.22;5080205;28;45435;-88
2022/01/10 01:27:28;;;;;;;;;50.75;39.25;;;;;8.88;69.58;100810.31;5080401;27;45484;-87
2022/01/10 01:29:54;;;;;;;;;48.50;41.50;;;;;8.94;69.70;100830.47;5080169;27;45511;-88
2022/01/10 01:32:19;;;;;;;;;51.00;41.00;;;;;9.12;69.52;100854.69;5079058;28;45407;-88
2022/01/10 01:34:44;;;;;;;;;48.25;39.25;;;;;8.79;69.66;100821.25;5080477;27;45390;-88
2022/01/10 01:37:11;;;;;;;;;45.50;37.50;;;;;9.20;69.46;100897.81;5069247;27;45386;-87
2022/01/10 01:39:37;;;;;;;;;48.75;39.50;;;;;8.85;69.47;100842.31;5060346;28;45671;-87
2022/01/10 01:42:17;;;;;;;;;47.25;38.50;;;;;9.23;69.45;100911.03;5066109;28;45359;-87
2022/01/10 01:44:42;;;;;;;;;47.75;38.25;;;;;9.01;69.48;100884.28;5077879;28;45480;-87
2022/01/10 01:47:08;;;;;;;;;46.00;39.25;;;;;8.82;69.37;100847.72;5074257;27;45430;-87
2022/01/10 01:49:33;;;;;;;;;47.50;40.50;;;;;9.03;69.58;100893.09;5080404;27;46551;-86
2022/01/10 01:51:59;;;;;;;;;43.25;37.75;;;;;8.23;69.36;100768.25;5079989;27;45366;-87
2022/01/10 01:54:24;;;;;;;;;43.50;36.75;;;;;9.22;69.37;100942.03;5063000;28;45414;-87
2022/01/10 01:56:51;;;;;;;;;42.50;36.25;;;;;9.20;69.35;100938.59;5060317;28;45425;-87
2022/01/10 01:59:17;;;;;;;;;48.00;38.75;;;;;8.72;69.32;100861.41;5078498;28;47289;-87
2022/01/10 02:01:42;;;;;;;;;47.50;38.00;;;;;9.18;69.27;100937.78;5080138;27;45262;-87
2022/01/10 02:04:08;;;;;;;;;47.25;37.50;;;;;8.74;69.45;100868.41;5080100;27;45333;-87
2022/01/10 02:06:33;;;;;;;;;43.50;37.25;;;;;8.99;69.16;100926.00;5080675;27;45356;-87
2022/01/10 02:08:59;;;;;;;;;45.25;37.75;;;;;8.22;68.62;100798.41;5079703;27;46439;-88
2022/01/10 02:11:24;;;;;;;;;50.25;39.75;;;;;8.68;69.12;100886.31;5079797;27;45308;-88
2022/01/10 02:13:49;;;;;;;;;47.00;39.50;;;;;9.00;69.26;100949.91;5080180;27;45239;-87
2022/01/10 02:16:22;;;;;;;;;47.50;39.50;;;;;9.05;69.46;100966.56;5079464;27;45441;-87
2022/01/10 02:18:49;;;;;;;;;49.25;40.00;;;;;8.71;69.45;100912.78;5079926;27;45327;-87
2022/01/10 02:21:15;;;;;;;;;50.00;42.00;;;;;8.64;69.13;100901.53;5079398;27;45435;-88
2022/01/10 02:23:41;;;;;;;;;47.75;39.25;;;;;8.65;68.86;100906.75;5068275;27;45519;-87
2022/01/10 02:26:06;;;;;;;;;54.50;39.50;;;;;8.77;68.83;100934.72;5074551;28;45492;-87
2022/01/10 02:28:32;;;;;;;;;48.50;41.75;;;;;8.96;69.01;100963.34;5063527;28;45695;-87
2022/01/10 02:30:58;;;;;;;;;49.00;41.00;;;;;8.94;68.85;100958.06;5079049;27;45351;-87
2022/01/10 02:33:25;;;;;;;;;45.75;39.50;;;;;8.61;68.81;100898.94;5071388;27;45439;-87
2022/01/10 02:38:19;;;;;;;;;52.50;43.00;;;;;8.44;68.87;100886.22;5059070;28;46008;-88
2022/01/10 02:40:46;;;;;;;;;45.25;38.75;;;;;8.80;69.16;100970.94;5058894;28;45330;-87
2022/01/10 02:43:11;;;;;;;;;53.75;42.00;;;;;8.49;68.95;100920.59;5063512;28;45326;-88
2022/01/10 02:45:37;;;;;;;;;52.75;41.50;;;;;8.56;69.03;100936.28;5072690;28;45440;-87
2022/01/10 02:48:02;;;;;;;;;47.75;38.75;;;;;8.52;69.25;100939.97;5074533;28;48252;-87
2022/01/10 02:50:27;;;;;;;;;50.25;42.00;;;;;8.73;68.64;100974.72;5058851;28;45467;-87
2022/01/10 02:52:53;;;;;;;;;53.00;43.50;;;;;8.29;69.17;100907.91;5074767;27;45469;-87
2022/01/10 02:55:19;;;;;;;;;49.25;41.00;;;;;8.77;69.12;101002.94;5058327;28;45385;-87
2022/01/10 02:57:44;;;;;;;;;56.75;42.50;;;;;8.69;68.84;100997.03;5057607;28;48402;-87
2022/01/10 03:00:14;;;;;;;;;50.50;41.25;;;;;8.70;68.48;101006.72;5058868;28;45485;-87
2022/01/10 03:02:41;;;;;;;;;50.50;41.25;;;;;8.36;68.45;100952.84;5058998;28;45251;-87
2022/01/10 03:05:07;;;;;;;;;58.75;44.25;;;;;8.55;68.62;100989.50;5058980;28;45569;-87
2022/01/10 03:07:33;;;;;;;;;55.25;43.75;;;;;8.07;68.86;100921.84;5058703;28;45450;-87
2022/01/10 03:09:59;;;;;;;;;54.50;42.50;;;;;8.55;68.56;101014.25;5058294;28;45506;-87
2022/01/10 03:12:25;;;;;;;;;52.50;44.00;;;;;8.34;68.50;100981.22;5078629;28;45742;-87
2022/01/10 03:14:50;;;;;;;;;54.75;40.75;;;;;8.53;68.40;101016.09;5077927;28;45422;-87
2022/01/10 03:17:16;;;;;;;;;59.50;46.75;;;;;8.15;68.28;100957.03;5059666;27;46182;-87
2022/01/10 03:19:42;;;;;;;;;57.00;46.50;;;;;8.36;68.35;101000.66;5058705;28;45372;-87
2022/01/10 03:22:09;;;;;;;;;61.25;47.00;;;;;8.48;68.79;101028.66;5058160;28;45335;-88
2022/01/10 03:24:35;;;;;;;;;52.75;44.00;;;;;8.39;69.07;101012.97;5058635;28;45335;-87
2022/01/10 03:27:01;;;;;;;;;58.75;48.25;;;;;8.15;68.90;100978.25;5058445;28;45396;-87
2022/01/10 03:29:26;;;;;;;;;54.00;45.75;;;;;8.25;68.94;101003.59;5058298;28;45378;-87
2022/01/10 03:31:52;;;;;;;;;53.00;44.50;;;;;8.27;69.15;101000.91;5058548;28;45315;-87
2022/01/10 03:34:18;;;;;;;;;55.25;45.25;;;;;8.47;68.85;101044.63;5057661;28;45377;-89
2022/01/10 03:36:44;;;;;;;;;58.50;47.25;;;;;8.32;68.85;101022.03;5060994;28;45455;-90
2022/01/10 03:39:11;;;;;;;;;52.50;43.25;;;;;8.46;69.18;101046.41;5076792;28;45501;-88
2022/01/10 03:41:37;;;;;;;;;51.75;42.00;;;;;8.47;69.33;101050.81;5076938;27;45434;-86
2022/01/10 03:44:05;;;;;;;;;49.50;40.75;;;;;8.46;69.52;101054.38;5078661;27;45384;-86
2022/01/10 03:46:32;;;;;;;;;53.00;43.75;;;;;8.46;69.12;101054.38;5078237;27;45346;-87
2022/01/10 03:48:59;;;;;;;;;52.75;43.25;;;;;8.47;68.91;101057.91;5078543;27;45382;-87
2022/01/10 03:51:24;;;;;;;;;55.75;45.75;;;;;8.11;68.83;100997.84;5075904;28;45377;-86
2022/01/10 03:53:49;;;;;;;;;51.25;43.00;;;;;8.40;68.83;101052.75;5078552;27;45540;-86
2022/01/10 03:56:15;;;;;;;;;52.25;45.00;;;;;8.45;68.87;101064.16;5077964;27;46214;-86
2022/01/10 03:58:40;;;;;;;;;24.50;21.25;;;;;8.42;68.69;101069.53;5078516;27;45480;-86
2022/01/10 04:01:08;;;;;;;;;53.75;44.50;;;;;8.18;68.79;101044.53;5077751;27;45500;-87
2022/01/10 04:03:34;;;;;;;;;52.50;43.00;;;;;8.27;68.94;101058.47;5077331;28;45566;-87
2022/01/10 04:05:59;;;;;;;;;53.00;43.50;;;;;8.25;68.89;101062.03;5076663;28;46119;-87
2022/01/10 04:08:25;;;;;;;;;48.50;40.25;;;;;8.21;68.69;101060.38;5077571;28;45585;-87
2022/01/10 04:10:52;;;;;;;;;52.00;42.00;;;;;8.37;68.16;101099.78;5076985;28;45258;-87
2022/01/10 04:13:18;;;;;;;;;54.75;43.50;;;;;8.15;68.45;101065.88;5076194;28;45565;-87
2022/01/10 04:15:44;;;;;;;;;56.00;45.75;;;;;7.97;68.36;101046.03;5077911;27;46244;-87
2022/01/10 04:18:09;;;;;;;;;52.00;43.50;;;;;7.93;68.62;101036.41;5076386;28;45457;-87
2022/01/10 04:20:35;;;;;;;;;52.75;44.50;;;;;7.95;68.98;101045.19;5067534;27;45343;-87
2022/01/10 04:23:00;;;;;;;;;49.75;42.00;;;;;8.24;68.38;101104.53;5057563;28;45457;-87
2022/01/10 04:25:25;;;;;;;;;55.25;44.00;;;;;8.08;68.58;101079.34;5056816;28;46374;-87
2022/01/10 04:27:51;;;;;;;;;52.75;43.50;;;;;8.10;68.68;101077.53;5057337;28;45449;-87
2022/01/10 04:30:17;;;;;;;;;47.00;40.50;;;;;7.97;68.11;101067.25;5057347;28;45426;-87
2022/01/10 04:32:44;;;;;;;;;54.00;43.25;;;;;7.51;68.29;101004.81;5057945;28;45402;-87
2022/01/10 04:35:10;;;;;;;;;49.25;42.00;;;;;7.89;67.73;101073.69;5057308;28;45427;-87
2022/01/10 04:37:36;;;;;;;;;51.75;41.25;;;;;7.99;68.00;101099.94;5056887;28;45959;-87
2022/01/10 04:40:03;;;;;;;;;56.75;45.00;;;;;7.95;68.58;101097.41;5057461;28;45454;-87
2022/01/10 04:42:28;;;;;;;;;53.75;43.75;;;;;7.93;68.31;101109.84;5057524;28;45501;-87
2022/01/10 04:44:54;;;;;;;;;50.75;42.00;;;;;7.57;67.92;101046.25;5077290;27;49315;-87
2022/01/10 04:47:19;;;;;;;;;48.25;41.00;;;;;8.01;68.06;101134.41;5077444;27;45437;-87
2022/01/10 04:52:19;;;;;;;;;51.75;42.25;;;;;7.86;68.37;101134.81;5056704;28;45490;-87
2022/01/10 04:54:44;;;;;;;;;56.50;44.50;;;;;7.64;67.95;101113.28;5055829;28;47553;-87
2022/01/10 04:57:10;;;;;;;;;55.50;45.50;;;;;7.93;68.33;101157.63;5057121;28;45436;-87
2022/01/10 04:59:35;;;;;;;;;57.00;45.50;;;;;7.93;68.64;101163.78;5057207;28;45407;-87
2022/01/10 05:02:00;;;;;;;;;56.25;44.75;;;;;7.91;67.98;101162.09;5057434;28;45576;-87
2022/01/10 05:04:26;;;;;;;;;50.00;42.50;;;;;7.78;67.97;101153.59;5059745;28;46118;-87
2022/01/10 05:06:51;;;;;;;;;52.75;44.25;;;;;7.86;68.59;101170.16;5071826;28;45370;-87
2022/01/10 05:09:16;;;;;;;;;51.50;41.75;;;;;7.87;68.15;101171.06;5057077;28;45351;-87
2022/01/10 05:11:42;;;;;;;;;58.25;46.50;;;;;7.73;68.90;101152.84;5055940;28;45511;-87
2022/01/10 05:14:07;;;;;;;;;45.50;38.50;;;;;7.43;68.71;101104.06;5055571;28;48405;-87
2022/01/10 05:16:32;;;;;;;;;53.50;45.00;;;;;7.53;68.87;101126.78;5055615;28;45558;-87
2022/01/10 05:18:58;;;;;;;;;53.25;45.50;;;;;7.54;68.77;101144.47;5063623;28;45400;-87
2022/01/10 05:21:23;;;;;;;;;52.25;43.50;;;;;7.33;68.64;101095.47;5077086;27;45642;-87
2022/01/10 05:23:49;;;;;;;;;52.50;42.00;;;;;7.58;68.84;101141.66;5075824;28;47405;-87
2022/01/10 05:26:14;;;;;;;;;58.25;47.00;;;;;7.72;68.56;101169.66;5077138;27;45517;-87
2022/01/10 05:28:40;;;;;;;;;54.50;45.75;;;;;7.89;68.80;101207.25;5075695;28;45466;-87
2022/01/10 05:31:05;;;;;;;;;55.50;43.75;;;;;7.18;68.31;101094.91;5076305;28;45431;-87
2022/01/10 05:33:30;;;;;;;;;54.75;46.00;;;;;7.79;68.67;101211.91;5076439;27;45902;-87
2022/01/10 05:35:56;;;;;;;;;55.75;46.50;;;;;7.62;68.87;101182.28;5073622;27;45486;-87
2022/01/10 05:38:21;;;;;;;;;55.25;45.25;;;;;7.82;68.71;101216.28;5076999;27;45542;-87
2022/01/10 05:40:46;;;;;;;;;55.75;44.50;;;;;7.63;68.41;101191.09;5077138;27;45328;-87
2022/01/10 05:43:12;;;;;;;;;52.75;43.25;;;;;7.71;68.41;101213.88;5061865;27;45577;-87
2022/01/10 05:45:42;;;;;;;;;53.75;43.75;;;;;7.65;68.08;101203.41;5057863;28;45306;-87
2022/01/10 05:48:13;;;;;;;;;58.00;46.75;;;;;7.79;68.37;101233.13;5062580;27;45539;-87
2022/01/10 05:50:42;;;;;;;;;56.25;45.25;;;;;7.76;67.94;101241.19;5063936;28;45413;-87
2022/01/10 05:53:08;;;;;;;;;58.00;45.25;;;;;7.75;67.73;101243.84;5069792;28;47918;-87
2022/01/10 05:55:36;;;;;;;;;56.75;45.50;;;;;7.68;67.93;101242.25;5076086;28;45660;-87
2022/01/10 05:58:02;;;;;;;;;57.75;44.75;;;;;7.65;67.41;101234.38;5070846;28;45302;-86
2022/01/10 06:00:28;;;;;;;;;59.00;47.00;;;;;7.24;67.34;101184.06;5073605;27;45384;-86
2022/01/10 06:02:53;;;;;;;;;57.75;47.00;;;;;7.36;67.51;101215.59;5069720;27;45523;-87
2022/01/10 06:05:19;;;;;;;;;57.50;44.50;;;;;6.75;67.07;101113.59;5060025;27;45382;-87
2022/01/10 06:07:45;;;;;;;;;47.75;39.75;;;;;7.43;67.53;101244.63;5070119;27;45462;-86
2022/01/10 06:10:10;;;;;;;;;55.00;44.75;;;;;7.20;67.84;101208.88;5063977;28;45492;-86
2022/01/10 06:12:35;;;;;;;;;56.75;45.50;;;;;7.59;68.03;101283.16;5060905;28;45997;-87
2022/01/10 06:15:01;;;;;;;;;58.00;47.25;;;;;7.59;67.50;101286.69;5066297;28;45464;-87
2022/01/10 06:17:26;;;;;;;;;61.25;48.75;;;;;7.25;67.62;101238.81;5074359;27;45326;-87
2022/01/10 06:19:52;;;;;;;;;63.25;48.25;;;;;7.10;67.61;101224.13;5062924;28;45316;-88
2022/01/10 06:22:17;;;;;;;;;56.00;47.00;;;;;7.27;67.84;101254.69;5078230;28;48313;-89
2022/01/10 06:24:43;;;;;;;;;61.25;49.00;;;;;6.96;68.05;101205.88;5067394;27;45492;-86
2022/01/10 06:27:08;;;;;;;;;55.00;43.25;;;;;6.88;68.26;101196.31;5063337;28;45501;-86
2022/01/10 06:29:33;;;;;;;;;59.75;48.75;;;;;7.16;68.11;101231.06;5074294;27;45416;-85
2022/01/10 06:31:59;;;;;;;;;63.75;49.25;;;;;7.25;67.95;101262.66;5063388;28;47980;-86
2022/01/10 06:34:24;;;;;;;;;59.75;48.50;;;;;7.49;67.84;101302.81;5077034;28;45306;-84
2022/01/10 06:36:49;;;;;;;;;59.50;47.75;;;;;7.57;67.92;101317.66;5076399;28;45422;-86
2022/01/10 06:39:15;;;;;;;;;57.50;47.50;;;;;7.30;67.52;101265.22;5065596;27;45451;-88
2022/01/10 06:41:40;;;;;;;;;59.75;48.50;;;;;7.71;67.63;101340.38;5060810;28;46308;-85
2022/01/10 06:44:06;;;;;;;;;58.75;48.25;;;;;7.72;67.54;101347.41;5059919;27;45397;-83
2022/01/10 06:46:31;;;;;;;;;57.75;48.00;;;;;7.72;67.38;101350.06;5059752;28;45426;-84
2022/01/10 06:48:57;;;;;;;;;45.00;37.00;;;;;7.39;67.13;101292.41;5070301;27;45309;-83
2022/01/10 06:51:22;;;;;;;;;59.50;48.25;;;;;7.74;67.26;101358.88;5076987;28;47151;-83
2022/01/10 06:53:47;;;;;;;;;60.50;46.75;;;;;7.77;66.91;101378.25;5079536;27;45329;-83
2022/01/10 06:56:13;;;;;;;;;59.25;46.50;;;;;7.75;66.79;101388.03;5079167;27;45710;-83
2022/01/10 06:58:38;;;;;;;;;60.00;47.00;;;;;7.69;66.35;101379.31;5078372;27;45390;-83
2022/01/10 07:01:04;;;;;;;;;59.50;46.00;;;;;7.74;66.73;101398.66;5078634;28;45701;-83
2022/01/10 07:03:29;;;;;;;;;54.50;44.00;;;;;7.32;66.66;101335.88;5079446;27;45401;-83
2022/01/10 07:05:55;;;;;;;;;54.75;44.25;;;;;7.39;66.24;101350.75;5072515;28;45401;-83
2022/01/10 07:08:22;;;;;;;;;55.75;44.75;;;;;7.66;66.29;101398.84;5058847;28;45449;-83
2022/01/10 07:10:47;;;;;;;;;55.00;45.00;;;;;7.78;66.16;101419.81;5058893;28;46025;-83
2022/01/10 07:13:13;;;;;;;;;56.75;47.50;;;;;7.70;66.11;101419.09;5058447;28;45406;-83
2022/01/10 07:15:38;;;;;;;;;56.50;46.50;;;;;7.71;66.21;101431.44;5058369;28;45374;-83
2022/01/10 07:18:03;;;;;;;;;56.50;45.75;;;;;7.64;65.87;101435.13;5058948;28;45312;-82
2022/01/10 07:20:31;;;;;;;;;57.00;44.50;;;;;7.69;66.53;101435.91;5058068;28;58078;-81
2022/01/10 07:22:56;;;;;;;;;44.50;36.50;;;;;7.88;66.30;101467.38;5058428;28;45336;-81
2022/01/10 07:25:21;;;;;;;;;54.50;45.75;;;;;7.46;66.38;101399.25;5058030;28;45416;-85
2022/01/10 07:27:47;;;;;;;;;54.25;43.25;;;;;7.68;66.53;101447.44;5058897;28;45366;-82
2022/01/10 07:30:13;;;;;;;;;65.50;50.00;;;;;7.82;66.50;101477.22;5057058;28;45980;-83
2022/01/10 07:32:38;;;;;;;;;55.50;44.50;;;;;7.78;66.37;101464.91;5057809;28;45323;-83
2022/01/10 07:35:05;;;;;;;;;55.00;45.00;;;;;7.96;66.98;101494.63;5068773;28;45296;-84
2022/01/10 07:37:30;;;;;;;;;53.25;43.75;;;;;7.67;66.74;101443.03;5076530;27;45517;-83
2022/01/10 07:39:55;;;;;;;;;54.00;44.00;;;;;7.71;66.76;101450.03;5076537;28;56287;-86
2022/01/10 07:42:21;;;;;;;;;57.00;45.50;;;;;7.08;66.68;101345.19;5056988;28;45832;-89
2022/01/10 07:44:46;;;;;;;;;58.25;47.25;;;;;8.05;67.03;101510.34;5069091;28;45501;-85
2022/01/10 07:47:12;;;;;;;;;59.25;47.00;;;;;7.18;66.64;101372.41;5078363;27;45552;-86
2022/01/10 07:49:37;;;;;;;;;54.00;43.00;;;;;8.10;66.77;101529.75;5069153;28;47995;-84
2022/01/10 07:52:03;;;;;;;;;54.75;42.75;;;;;7.87;66.96;101500.16;5077555;27;45417;-85
2022/01/10 07:54:28;;;;;;;;;55.75;44.50;;;;;8.08;66.84;101530.66;5073638;27;45408;-85
2022/01/10 07:56:54;;;;;;;;;52.25;42.00;;;;;7.92;66.40;101508.88;5058076;28;45363;-85
2022/01/10 07:59:21;;;;;;;;;50.25;38.75;;;;;7.69;66.52;101477.50;5061558;28;45509;-85
2022/01/10 08:01:47;;;;;;;;;46.50;38.50;;;;;8.03;66.45;101542.28;5076851;27;45395;-85
2022/01/10 08:04:13;;;;;;;;;50.25;41.00;;;;;7.84;66.42;101503.72;5076578;27;45464;-85
2022/01/10 08:06:38;;;;;;;;;48.25;38.25;;;;;8.07;66.22;101551.03;5077573;27;45438;-87
2022/01/10 08:09:04;;;;;;;;;49.75;39.50;;;;;7.69;66.03;101498.72;5076982;27;46498;-84
2022/01/10 08:11:29;;;;;;;;;58.50;44.50;;;;;8.11;66.48;101576.63;5076857;27;45575;-84
2022/01/10 08:13:55;;;;;;;;;50.75;41.75;;;;;7.88;65.82;101549.66;5075256;27;45416;-80
2022/01/10 08:16:20;;;;;;;;;52.75;42.75;;;;;7.53;67.34;101590.97;5063698;27;45868;-80
2022/01/10 08:18:46;;;;;;;;;51.25;38.50;;;;;7.01;67.89;101552.94;5069517;27;46297;-81
2022/01/10 08:21:12;;;;;;;;;54.25;42.50;;;;;6.50;68.97;101521.91;5060639;28;45389;-81
2022/01/10 08:23:38;;;;;;;;;55.00;46.00;;;;;6.61;70.01;101569.44;5068598;27;45568;-80
2022/01/10 08:26:03;;;;;;;;;45.00;36.50;;;;;6.74;70.04;101601.94;5068173;28;45506;-80
2022/01/10 08:28:30;;;;;;;;;55.25;41.25;;;;;6.51;70.36;101595.19;5066637;28;46114;-80
2022/01/10 08:30:55;;;;;;;;;57.00;43.50;;;;;6.26;71.33;101580.50;5074293;27;46550;-79
2022/01/10 08:33:21;;;;;;;;;50.50;43.00;;;;;6.15;71.44;101577.13;5069476;27;45469;-79
2022/01/10 08:35:46;;;;;;;;;45.50;39.75;;;;;6.09;72.37;101586.88;5072523;27;45636;-80
2022/01/10 08:38:11;;;;;;;;;55.75;43.25;;;;;6.06;73.07;101594.88;5067358;27;46423;-79
2022/01/10 08:40:37;;;;;;;;;40.75;35.00;;;;;6.14;73.35;101631.81;5072143;28;45532;-79
2022/01/10 08:43:06;;;;;;;;;43.75;38.50;;;;;5.83;73.38;101592.44;5067253;27;45461;-79
2022/01/10 08:45:32;;;;;;;;;39.75;33.50;;;;;5.85;73.89;101606.53;5070375;27;45400;-80
2022/01/10 08:47:57;;;;;;;;;40.75;36.50;;;;;6.01;73.87;101638.13;5067020;27;45379;-80
2022/01/10 08:50:25;;;;;;;;;35.50;32.00;;;;;5.90;74.27;101630.28;5068377;28;45454;-80
2022/01/10 08:52:51;;;;;;;;;46.25;38.25;;;;;5.91;74.58;101632.91;5069130;28;45399;-80
2022/01/10 08:55:18;;;;;;;;;83.25;64.75;;;;;5.89;75.59;101632.03;5073915;27;45414;-80
2022/01/10 08:57:43;;;;;;;;;40.25;32.00;;;;;5.95;76.54;101611.72;5072770;27;46655;-80
2022/01/10 09:00:09;;;;;;;;;48.25;37.00;;;;;6.21;74.76;101608.81;5067717;27;45393;-80
2022/01/10 09:02:35;;;;;;;;;44.75;37.25;;;;;6.65;75.04;101640.03;5065644;28;45513;-80
2022/01/10 09:05:00;;;;;;;;;46.50;39.25;;;;;7.13;74.42;101666.75;5065878;27;45580;-80
2022/01/10 09:07:26;;;;;;;;;46.00;36.00;;;;;7.22;73.24;101635.69;5062568;28;46007;-79
2022/01/10 09:09:51;;;;;;;;;40.50;31.50;;;;;7.57;71.99;101661.66;5064426;28;46004;-79
2022/01/10 09:12:16;;;;;;;;;39.00;33.75;;;;;7.84;70.56;101681.53;5066769;28;45441;-82
2022/01/10 09:14:42;;;;;;;;;40.75;32.25;;;;;7.93;69.93;101688.47;5058832;28;45780;-82
2022/01/10 09:17:09;;;;;;;;;28.33;25.00;;;;;7.85;69.13;101688.59;5070051;28;46207;-81
2022/01/10 09:19:34;;;;;;;;;27.33;22.00;;;;;7.98;68.47;101710.47;5065446;28;45377;-80
2022/01/10 09:21:59;;;;;;;;;24.67;21.00;;;;;7.86;68.54;101684.16;5068381;27;45426;-80
2022/01/10 09:24:25;;;;;;;;;25.33;22.00;;;;;7.85;68.02;101688.59;5064203;28;45576;-80
2022/01/10 09:26:50;;;;;;;;;28.00;24.33;;;;;8.08;68.39;101714.75;5070548;27;45804;-80
2022/01/10 09:29:15;;;;;;;;;23.67;22.33;;;;;7.97;67.89;101698.13;5063997;27;45409;-80
2022/01/10 09:31:41;;;;;;;;;29.75;24.50;;;;;8.00;68.42;101706.03;5069687;27;45444;-81
2022/01/10 09:34:06;;;;;;;;;30.00;27.00;;;;;7.87;68.09;101676.19;5063304;27;45372;-81
2022/01/10 09:36:32;;;;;;;;;28.75;23.75;;;;;8.06;68.01;101711.25;5069654;27;46084;-81
2022/01/10 09:38:58;;;;;;;;;25.67;23.00;;;;;8.13;68.00;101717.31;5069752;28;45587;-80
2022/01/10 09:41:25;;;;;;;;;27.75;27.50;;;;;8.02;68.14;101690.94;5076597;27;45491;-80
2022/01/10 09:43:56;;;;;;;;;25.67;24.33;;;;;8.29;67.96;101724.09;5079261;27;45449;-80
2022/01/10 09:46:22;;;;;;;;;38.75;29.00;;;;;8.33;68.04;101728.44;5079264;27;45693;-81
2022/01/10 09:48:48;;;;;;;;;24.33;22.67;;;;;8.29;67.83;101716.13;5079173;28;45379;-80
2022/01/10 09:51:13;;;;;;;;;28.75;26.50;;;;;8.29;68.03;101720.56;5079269;27;45837;-80
2022/01/10 09:53:39;;;;;;;;;29.50;26.25;;;;;8.38;67.60;101741.63;5079715;27;45548;-80
2022/01/10 09:56:04;;;;;;;;;33.50;30.50;;;;;8.47;67.54;101748.59;5069882;28;46310;-81
2022/01/10 09:58:30;;;;;;;;;34.75;30.75;;;;;8.26;67.60;101718.84;5071080;27;45546;-80
2022/01/10 10:00:57;;;;;;;;;32.25;30.50;;;;;8.37;67.49;101747.88;5076489;28;45405;-80
2022/01/10 10:03:23;;;;;;;;;34.00;29.00;;;;;8.42;67.01;101759.31;5078767;27;45426;-80
2022/01/10 10:05:52;;;;;;;;;25.00;24.67;;;;;8.42;66.98;101751.34;5077968;27;45531;-80
2022/01/10 10:08:20;;;;;;;;;26.50;25.50;;;;;8.46;66.71;101755.69;5077925;28;45987;-80
2022/01/10 10:10:46;;;;;;;;;28.00;23.25;;;;;8.31;66.55;101742.66;5078652;28;45440;-79
2022/01/10 10:13:14;;;;;;;;;36.00;29.25;;;;;8.63;66.90;101779.28;5065668;28;45402;-80
2022/01/10 10:15:40;;;;;;;;;28.00;26.67;;;;;8.58;66.87;101760.78;5078761;28;45369;-80
2022/01/10 10:18:08;;;;;;;;;33.50;32.00;;;;;8.40;66.79;101740.72;5078809;27;45337;-80
2022/01/10 10:20:34;;;;;;;;;35.67;29.00;;;;;8.66;66.52;101780.13;5079275;27;45700;-80
2022/01/10 10:23:03;;;;;;;;;34.25;32.00;;;;;8.65;66.64;101774.81;5079011;27;45468;-80
2022/01/10 10:25:28;;;;;;;;;38.25;32.00;;;;;8.67;66.64;101770.34;5070030;27;46143;-79
2022/01/10 10:27:56;;;;;;;;;33.50;29.25;;;;;8.70;66.62;101782.72;5078705;27;45672;-80
2022/01/10 10:30:27;;;;;;;;;38.00;31.25;;;;;8.48;66.61;101753.91;5079399;27;45740;-79
2022/01/10 10:33:21;;;;;;;;;32.00;30.00;;;;;8.63;67.07;101798.75;5079082;28;45406;-79
2022/01/10 10:36:07;;;;;;;;;31.75;27.25;;;;;8.57;66.72;101777.63;5078113;27;45539;-80
2022/01/10 10:38:33;;;;;;;;;36.25;31.00;;;;;8.41;66.50;101739.84;5077175;28;45641;-80
2022/01/10 10:41:00;;;;;;;;;42.75;34.00;;;;;8.58;66.99;101773.19;5077830;27;45840;-79
2022/01/10 10:43:29;;;;;;;;;33.25;31.25;;;;;8.58;66.98;101760.78;5075773;27;45486;-80
2022/01/10 10:45:59;;;;;;;;;37.00;32.50;;;;;8.76;66.67;101806.53;5078420;28;46531;-80
2022/01/10 10:48:25;;;;;;;;;36.25;32.50;;;;;8.60;66.39;101785.53;5077494;27;45416;-80
2022/01/10 10:50:50;;;;;;;;;35.75;31.25;;;;;8.59;66.38;101775.81;5077053;27;45388;-80
2022/01/10 10:53:15;;;;;;;;;44.00;35.50;;;;;8.78;66.97;101810.00;5077663;28;45327;-80
2022/01/10 10:55:42;;;;;;;;;38.50;32.25;;;;;8.85;66.32;101816.97;5078165;27;45441;-82
2022/01/10 10:58:09;;;;;;;;;38.50;33.75;;;;;8.77;66.72;101805.59;5072670;28;45942;-79
2022/01/10 11:00:35;;;;;;;;;43.00;34.50;;;;;8.85;66.47;101816.97;5076337;28;45524;-79
2022/01/10 11:03:01;;;;;;;;;41.25;35.75;;;;;8.95;66.67;101820.34;5074756;27;45631;-79
2022/01/10 11:05:27;;;;;;;;;45.25;38.25;;;;;8.97;66.69;101816.75;5071168;27;45492;-79
2022/01/10 11:07:53;;;;;;;;;44.25;36.25;;;;;8.91;66.62;101806.22;5077765;27;45614;-80
2022/01/10 11:10:18;;;;;;;;;41.50;32.75;;;;;8.95;65.86;101820.34;5077399;28;45777;-81
2022/01/10 11:12:50;;;;;;;;;34.75;29.75;;;;;8.69;66.19;101775.66;5067576;27;45439;-81
2022/01/10 11:15:16;;;;;;;;;36.75;32.25;;;;;8.83;66.26;101805.50;5064556;28;45355;-81
2022/01/10 11:17:42;;;;;;;;;37.50;32.75;;;;;8.97;66.50;101827.38;5072875;27;45438;-81
2022/01/10 11:20:22;;;;;;;;;33.25;31.25;;;;;8.99;66.73;101824.66;5072836;27;45291;-88
2022/01/10 11:22:54;;;;;;;;;34.25;29.75;;;;;9.04;66.37;101826.34;5076403;28;45581;-82
2022/01/10 11:25:26;;;;;;;;;38.75;31.25;;;;;9.00;66.07;101832.63;5072892;27;46577;-80